createdAt,value
2019-04-05T00:00:36.959Z,10.30
2019-04-05T00:03:33.987Z,10.20
2019-04-05T00:06:30.811Z,10.10
2019-04-05T00:09:27.599Z,10.20
2019-04-05T00:12:24.275Z,10.10
2019-04-05T00:15:21.353Z,10.10
2019-04-05T00:18:18.393Z,10.00
2019-04-05T00:21:16.467Z,10.00
2019-04-05T00:24:12.594Z,10.50
2019-04-05T00:27:08.842Z,9.80
2019-04-05T00:30:06.393Z,9.70
2019-04-05T00:33:02.346Z,9.70
2019-04-05T00:35:59.163Z,9.70
2019-04-05T00:38:55.712Z,9.70
2019-04-05T00:41:51.742Z,9.70
2019-04-05T00:44:47.756Z,9.60
2019-04-05T00:47:44.302Z,9.60
2019-04-05T00:50:40.900Z,9.70
2019-04-05T00:53:37.671Z,9.60
2019-04-05T00:56:34.309Z,9.60
2019-04-05T00:59:29.818Z,9.60
2019-04-05T01:02:28.245Z,9.60
2019-04-05T01:05:24.985Z,9.60
2019-04-05T01:08:20.703Z,9.60
2019-04-05T01:11:17.821Z,9.60
2019-04-05T01:14:14.566Z,9.50
2019-04-05T01:17:10.498Z,9.60
2019-04-05T01:20:09.030Z,9.60
2019-04-05T01:23:05.337Z,9.50
2019-04-05T01:26:03.326Z,9.40
2019-04-05T01:29:03.151Z,9.40
2019-04-05T01:31:59.133Z,9.40
2019-04-05T01:34:55.590Z,9.30
2019-04-05T01:37:52.957Z,9.30
2019-04-05T01:40:51.630Z,9.30
2019-04-05T01:43:47.616Z,9.30
2019-04-05T01:46:44.807Z,9.40
2019-04-05T01:49:41.811Z,9.30
2019-04-05T01:52:39.109Z,9.30
2019-04-05T01:55:36.737Z,9.30
2019-04-05T01:58:33.377Z,9.30
2019-04-05T02:01:31.839Z,9.30
2019-04-05T02:04:28.657Z,9.20
2019-04-05T02:07:26.177Z,9.10
2019-04-05T02:10:24.421Z,9.10
2019-04-05T02:13:21.453Z,9.10
2019-04-05T02:16:17.932Z,9.10
2019-04-05T02:19:14.976Z,9.10
2019-04-05T02:22:11.548Z,9.10
2019-04-05T02:25:09.256Z,9.10
2019-04-05T02:28:06.255Z,9.00
2019-04-05T02:31:05.867Z,9.00
2019-04-05T02:34:03.610Z,9.00
2019-04-05T02:37:00.569Z,9.00
2019-04-05T02:39:57.027Z,8.90
2019-04-05T02:42:55.914Z,8.80
2019-04-05T02:45:53.152Z,8.80
2019-04-05T02:48:49.868Z,8.90
2019-04-05T02:51:49.750Z,8.90
2019-04-05T02:54:47.297Z,8.90
2019-04-05T02:57:46.419Z,8.80
2019-04-05T03:00:43.497Z,8.80
2019-04-05T03:03:41.831Z,8.70
2019-04-05T03:06:38.758Z,8.70
2019-04-05T03:09:36.335Z,8.80
2019-04-05T03:12:34.005Z,8.80
2019-04-05T03:15:31.011Z,8.70
2019-04-05T03:18:29.540Z,8.70
2019-04-05T03:21:29.294Z,8.80
2019-04-05T03:24:29.998Z,8.80
2019-04-05T03:27:31.917Z,8.70
2019-04-05T03:30:28.925Z,8.70
2019-04-05T03:33:25.098Z,8.80
2019-04-05T03:36:21.759Z,8.90
2019-04-05T03:40:13.991Z,8.90
2019-04-05T03:43:11.679Z,8.80
2019-04-05T03:46:09.185Z,8.80
2019-04-05T03:49:06.114Z,9.00
2019-04-05T03:52:02.508Z,9.10
2019-04-05T03:54:59.376Z,9.20
2019-04-05T03:57:56.337Z,9.10
2019-04-05T04:00:52.962Z,9.00
2019-04-05T04:03:49.110Z,9.10
2019-04-05T04:06:46.414Z,9.20
2019-04-05T04:09:42.307Z,9.20
2019-04-05T04:12:38.488Z,9.20
2019-04-05T04:15:36.831Z,9.10
2019-04-05T04:18:33.684Z,9.20
2019-04-05T04:21:46.233Z,9.20
2019-04-05T04:24:42.792Z,9.20
2019-04-05T04:27:40.199Z,9.20
2019-04-05T04:30:38.559Z,9.30
2019-04-05T04:33:35.220Z,9.20
2019-04-05T04:36:31.726Z,9.20
2019-04-05T04:39:28.982Z,9.10
2019-04-05T04:42:26.127Z,9.00
2019-04-05T04:45:22.257Z,9.10
2019-04-05T04:48:19.125Z,9.20
2019-04-05T04:51:18.049Z,9.20
2019-04-05T04:54:16.685Z,9.20
2019-04-05T04:57:12.763Z,9.30
2019-04-05T05:00:09.914Z,9.40
2019-04-05T05:03:06.347Z,9.40
2019-04-05T05:06:02.079Z,9.50
2019-04-05T05:09:04.107Z,9.60
2019-04-05T05:12:00.538Z,9.70
2019-04-05T05:14:57.572Z,9.80
2019-04-05T05:17:58.738Z,9.90
2019-04-05T05:20:53.444Z,10.00
2019-04-05T05:23:50.931Z,10.00
2019-04-05T05:26:47.882Z,9.90
2019-04-05T05:29:44.756Z,10.00
2019-04-05T05:32:44.233Z,10.00
2019-04-05T05:35:40.418Z,10.20
2019-04-05T05:38:37.190Z,10.20
2019-04-05T05:41:33.814Z,10.20
2019-04-05T05:44:33.236Z,10.30
2019-04-05T05:47:29.398Z,10.30
2019-04-05T05:50:26.297Z,10.40
2019-04-05T05:53:22.546Z,10.50
2019-04-05T05:56:18.114Z,10.60
2019-04-05T05:59:15.255Z,10.70
2019-04-05T06:02:12.062Z,10.70
2019-04-05T06:05:09.012Z,10.80
2019-04-05T06:08:06.333Z,11.00
2019-04-05T06:11:03.244Z,11.00
2019-04-05T06:13:59.625Z,11.00
2019-04-05T06:16:56.650Z,11.00
2019-04-05T06:19:52.579Z,11.20
2019-04-05T06:22:48.484Z,11.20
2019-04-05T06:25:46.988Z,11.30
2019-04-05T06:28:43.345Z,11.50
2019-04-05T06:31:39.946Z,11.30
2019-04-05T06:34:35.894Z,11.30
2019-04-05T06:37:31.947Z,11.40
2019-04-05T06:40:39.989Z,11.50
2019-04-05T06:43:25.671Z,11.60
2019-04-05T06:46:22.402Z,11.70
2019-04-05T06:49:18.548Z,11.70
2019-04-05T06:52:15.092Z,11.90
2019-04-05T06:55:11.264Z,12.00
2019-04-05T06:58:10.379Z,11.70
2019-04-05T07:01:05.442Z,11.70
2019-04-05T07:04:10.821Z,11.70
2019-04-05T07:07:07.630Z,11.70
2019-04-05T07:10:05.656Z,11.70
2019-04-05T07:13:02.509Z,11.70
2019-04-05T07:15:58.625Z,11.60
2019-04-05T07:18:55.682Z,11.30
2019-04-05T07:21:52.520Z,11.00
2019-04-05T07:24:49.598Z,11.00
2019-04-05T07:27:50.412Z,11.00
2019-04-05T07:30:46.114Z,11.10
2019-04-05T07:33:42.402Z,11.30
2019-04-05T07:36:39.067Z,11.30
2019-04-05T07:39:35.721Z,11.30
2019-04-05T07:42:32.298Z,11.40
2019-04-05T07:45:29.039Z,11.70
2019-04-05T07:48:25.946Z,11.90
2019-04-05T07:51:22.882Z,12.20
2019-04-05T07:54:19.744Z,12.60
2019-04-05T07:57:16.587Z,13.00
2019-04-05T08:01:04.717Z,13.20
2019-04-05T08:04:01.836Z,13.40
2019-04-05T08:07:02.588Z,13.90
2019-04-05T08:09:59.323Z,13.90
2019-04-05T08:12:56.924Z,14.20
2019-04-05T08:15:52.349Z,15.10
2019-04-05T08:18:57.804Z,15.40
2019-04-05T08:21:46.073Z,15.00
2019-04-05T08:24:42.502Z,14.30
2019-04-05T08:27:38.467Z,14.20
2019-04-05T08:30:34.869Z,14.10
2019-04-05T08:33:30.995Z,14.90
2019-04-05T08:36:27.208Z,15.60
2019-04-05T08:39:23.752Z,17.00
2019-04-05T08:42:20.163Z,17.20
2019-04-05T08:45:16.613Z,17.70
2019-04-05T08:48:12.133Z,18.70
2019-04-05T08:51:08.560Z,20.10
2019-04-05T08:54:04.766Z,20.10
2019-04-05T08:57:00.447Z,21.00
2019-04-05T08:59:57.172Z,21.40
2019-04-05T09:02:53.562Z,21.20
2019-04-05T09:05:49.791Z,20.70
2019-04-05T09:08:45.921Z,21.20
2019-04-05T09:11:43.355Z,21.30
2019-04-05T09:14:39.474Z,22.00
2019-04-05T09:17:35.817Z,22.60
2019-04-05T09:20:31.407Z,23.10
2019-04-05T09:23:26.660Z,22.80
2019-04-05T09:26:23.009Z,23.30
2019-04-05T09:29:18.774Z,23.20
2019-04-05T09:32:15.418Z,22.80
2019-04-05T09:35:10.804Z,23.00
2019-04-05T09:38:06.503Z,22.30
2019-04-05T09:41:03.013Z,22.80
2019-04-05T09:43:59.148Z,23.70
2019-04-05T09:46:55.594Z,24.40
2019-04-05T09:49:51.659Z,24.50
2019-04-05T09:52:47.275Z,25.00
2019-04-05T09:55:45.429Z,25.30
2019-04-05T09:58:40.768Z,25.80
2019-04-05T10:01:37.386Z,27.20
2019-04-05T10:04:33.941Z,27.30
2019-04-05T10:07:31.660Z,26.80
2019-04-05T10:10:28.137Z,28.60
2019-04-05T10:13:24.490Z,28.20
2019-04-05T10:16:20.873Z,28.50
2019-04-05T10:19:18.030Z,27.70
2019-04-05T10:22:13.481Z,27.40
2019-04-05T10:25:09.343Z,27.70
2019-04-05T10:28:06.194Z,27.90
2019-04-05T10:31:04.501Z,28.40
2019-04-05T10:34:02.135Z,28.70
2019-04-05T10:36:58.592Z,28.70
2019-04-05T10:39:55.089Z,28.40
2019-04-05T10:42:51.676Z,28.50
2019-04-05T10:45:47.903Z,28.70
2019-04-05T10:48:43.771Z,29.20
2019-04-05T10:51:40.213Z,29.40
2019-04-05T10:54:36.776Z,29.20
2019-04-05T10:57:33.051Z,29.00
2019-04-05T11:00:30.035Z,29.50
2019-04-05T11:03:26.576Z,29.80
2019-04-05T11:06:25.290Z,28.80
2019-04-05T11:09:21.971Z,29.40
2019-04-05T11:12:17.814Z,28.80
2019-04-05T11:15:15.271Z,29.20
2019-04-05T11:18:12.053Z,29.20
2019-04-05T11:21:07.901Z,29.80
2019-04-05T11:24:03.493Z,30.40
2019-04-05T11:26:59.378Z,31.20
2019-04-05T11:29:57.709Z,31.10
2019-04-05T11:32:54.360Z,30.20
2019-04-05T11:35:51.474Z,30.30
2019-04-05T11:38:50.918Z,29.40
2019-04-05T11:41:46.871Z,29.40
2019-04-05T11:44:44.736Z,30.30
2019-04-05T11:47:43.814Z,30.60
2019-04-05T11:50:39.674Z,30.90
2019-04-05T11:53:36.116Z,30.10
2019-04-05T11:56:32.070Z,29.90
2019-04-05T11:59:28.220Z,30.30
2019-04-05T12:02:28.244Z,29.70
2019-04-05T12:05:26.897Z,28.90
2019-04-05T12:08:22.200Z,28.40
2019-04-05T12:11:17.999Z,28.00
2019-04-05T12:14:14.758Z,27.40
2019-04-05T12:17:11.448Z,26.30
2019-04-05T12:20:08.625Z,26.20
2019-04-05T12:23:04.229Z,26.70
2019-04-05T12:26:03.827Z,26.30
2019-04-05T12:28:58.003Z,25.00
2019-04-05T12:31:56.698Z,24.80
2019-04-05T12:34:52.978Z,25.90
2019-04-05T12:37:50.446Z,27.40
2019-04-05T12:40:45.938Z,28.90
2019-04-05T12:43:44.663Z,27.90
2019-04-05T12:46:39.699Z,26.80
2019-04-05T12:49:36.339Z,26.70
2019-04-05T12:52:32.671Z,26.70
2019-04-05T12:55:29.308Z,26.50
2019-04-05T12:58:25.869Z,27.20
2019-04-05T13:01:23.350Z,27.00
2019-04-05T13:04:20.634Z,26.10
2019-04-05T13:07:17.644Z,26.10
2019-04-05T13:10:14.482Z,27.40
2019-04-05T13:13:10.603Z,28.60
2019-04-05T13:16:09.692Z,27.30
2019-04-05T13:19:04.766Z,26.30
2019-04-05T13:22:02.950Z,26.00
2019-04-05T13:24:58.509Z,25.70
2019-04-05T13:27:54.006Z,25.20
2019-04-05T13:30:50.533Z,25.60
2019-04-05T13:33:47.083Z,26.50
2019-04-05T13:36:42.895Z,27.10
2019-04-05T13:39:38.770Z,26.10
2019-04-05T13:42:36.133Z,25.30
2019-04-05T13:45:32.896Z,24.30
2019-04-05T13:48:28.657Z,23.30
2019-04-05T13:51:28.025Z,22.90
2019-04-05T13:54:22.142Z,24.00
2019-04-05T13:57:17.852Z,25.30
2019-04-05T14:00:17.546Z,27.30
2019-04-05T14:03:11.866Z,28.40
2019-04-05T14:06:07.477Z,27.90
2019-04-05T14:09:02.982Z,27.80
2019-04-05T14:12:00.047Z,28.20
2019-04-05T14:14:56.348Z,28.50
2019-04-05T14:17:53.031Z,28.40
2019-04-05T14:20:50.014Z,28.70
2019-04-05T14:23:46.951Z,28.80
2019-04-05T14:26:43.728Z,28.00
2019-04-05T14:29:39.611Z,27.50
2019-04-05T14:32:35.122Z,27.60
2019-04-05T14:35:31.464Z,27.80
2019-04-05T14:38:31.068Z,27.30
2019-04-05T14:41:25.306Z,25.60
2019-04-05T14:44:21.878Z,24.30
2019-04-05T14:47:19.885Z,23.20
2019-04-05T14:50:17.624Z,22.00
2019-04-05T14:53:14.251Z,21.20
2019-04-05T14:56:10.999Z,20.70
2019-04-05T14:59:06.997Z,20.30
2019-04-05T15:02:02.701Z,20.00
2019-04-05T15:04:59.125Z,19.90
2019-04-05T15:07:55.722Z,19.80
2019-04-05T15:10:52.159Z,19.80
2019-04-05T15:13:48.362Z,20.80
2019-04-05T15:16:45.681Z,22.50
2019-04-05T15:19:43.447Z,23.70
2019-04-05T15:22:41.537Z,24.10
2019-04-05T15:25:36.422Z,24.20
2019-04-05T15:28:32.677Z,24.50
2019-04-05T15:31:28.970Z,24.70
2019-04-05T15:34:28.016Z,24.80
2019-04-05T15:37:22.765Z,24.50
2019-04-05T15:40:22.337Z,23.90
2019-04-05T15:43:18.875Z,23.80
2019-04-05T15:46:14.863Z,23.40
2019-04-05T15:49:11.167Z,23.10
2019-04-05T15:52:18.112Z,22.60
2019-04-05T15:55:06.446Z,22.20
2019-04-05T15:58:03.915Z,21.80
2019-04-05T16:01:04.166Z,21.30
2019-04-05T16:04:00.584Z,20.90
2019-04-05T16:06:55.871Z,20.50
2019-04-05T16:09:52.689Z,20.30
2019-04-05T16:12:48.432Z,20.10
2019-04-05T16:15:44.967Z,19.90
2019-04-05T16:18:40.967Z,19.80
2019-04-05T16:21:37.431Z,19.60
2019-04-05T16:24:33.585Z,19.40
2019-04-05T16:27:30.553Z,19.30
2019-04-05T16:30:27.143Z,19.30
2019-04-05T16:33:23.820Z,19.20
2019-04-05T16:36:19.076Z,19.00
2019-04-05T16:39:18.687Z,18.90
2019-04-05T16:42:15.155Z,18.90
2019-04-05T16:45:12.068Z,18.80
2019-04-05T16:48:08.765Z,18.70
2019-04-05T16:51:04.354Z,18.70
2019-04-05T16:54:01.410Z,18.60
2019-04-05T16:56:58.545Z,18.50
2019-04-05T16:59:55.185Z,18.40
2019-04-05T17:02:51.914Z,18.30
2019-04-05T17:05:48.315Z,18.30
2019-04-05T17:08:45.665Z,18.30
2019-04-05T17:11:41.320Z,18.20
2019-04-05T17:14:37.703Z,18.20
2019-04-05T17:17:34.585Z,18.00
2019-04-05T17:20:30.802Z,17.80
2019-04-05T17:23:27.962Z,17.60
2019-04-05T17:26:25.570Z,17.50
2019-04-05T17:29:22.324Z,17.40
2019-04-05T17:32:18.767Z,17.40
2019-04-05T17:35:15.162Z,17.30
2019-04-05T17:38:15.503Z,17.30
2019-04-05T17:41:13.157Z,17.20
2019-04-05T17:44:09.731Z,17.20
2019-04-05T17:47:06.334Z,17.20
2019-04-05T17:50:03.203Z,17.30
2019-04-05T17:53:11.543Z,17.30
2019-04-05T17:55:59.196Z,17.20
2019-04-05T17:58:57.132Z,17.10
2019-04-05T18:01:53.677Z,17.00
2019-04-05T18:04:53.692Z,16.90
2019-04-05T18:07:50.229Z,16.80
2019-04-05T18:10:48.716Z,16.80
2019-04-05T18:13:44.537Z,16.70
2019-04-05T18:16:41.496Z,16.70
2019-04-05T18:19:37.025Z,16.70
2019-04-05T18:22:33.579Z,16.50
2019-04-05T18:25:30.485Z,16.50
2019-04-05T18:28:26.532Z,16.40
2019-04-05T18:31:24.770Z,16.30
2019-04-05T18:34:20.902Z,16.20
2019-04-05T18:37:17.986Z,16.00
2019-04-05T18:40:13.873Z,16.00
2019-04-05T18:43:10.903Z,15.90
2019-04-05T18:46:07.521Z,15.80
2019-04-05T18:49:04.064Z,16.00
2019-04-05T18:51:59.437Z,15.70
2019-04-05T18:54:56.284Z,15.60
2019-04-05T18:57:52.705Z,15.50
2019-04-05T19:00:48.732Z,15.30
2019-04-05T19:03:45.066Z,15.30
2019-04-05T19:06:41.200Z,15.20
2019-04-05T19:09:37.856Z,15.10
2019-04-05T19:12:34.000Z,15.00
2019-04-05T19:15:29.716Z,14.90
2019-04-05T19:18:25.414Z,14.80
2019-04-05T19:21:21.976Z,14.80
2019-04-05T19:24:18.793Z,14.70
2019-04-05T19:27:14.933Z,14.60
2019-04-05T19:48:36.519Z,14.60
2019-04-05T19:51:04.150Z,14.50
2019-04-05T19:54:01.637Z,14.40
2019-04-05T19:56:58.707Z,14.30
2019-04-05T19:59:55.345Z,14.20
2019-04-05T20:02:52.090Z,14.10
2019-04-05T20:05:48.153Z,14.00
2019-04-05T20:08:44.575Z,13.80
2019-04-05T20:11:41.210Z,13.70
2019-04-05T20:14:38.457Z,13.60
2019-04-05T20:17:34.254Z,13.50
2019-04-05T20:20:30.426Z,13.50
2019-04-05T20:23:26.889Z,13.40
2019-04-05T20:26:22.966Z,13.30
2019-04-05T20:29:18.768Z,13.30
2019-04-05T20:32:15.545Z,13.20
2019-04-05T20:35:12.874Z,13.20
2019-04-05T20:38:08.874Z,13.10
2019-04-05T20:41:05.841Z,13.00
2019-04-05T20:44:03.390Z,13.00
2019-04-05T20:47:00.252Z,12.90
2019-04-05T20:49:57.198Z,12.90
2019-04-05T20:52:54.150Z,12.80
2019-04-05T20:55:51.116Z,12.70
2019-04-05T20:58:47.761Z,12.80
2019-04-05T21:01:44.805Z,12.70
2019-04-05T21:04:41.754Z,12.70
2019-04-05T21:07:38.278Z,12.60
2019-04-05T21:10:35.274Z,12.50
2019-04-05T21:13:31.480Z,12.40
2019-04-05T21:16:32.399Z,12.40
2019-04-05T21:19:26.247Z,12.30
2019-04-05T21:22:22.830Z,12.30
2019-04-05T21:25:19.499Z,12.10
2019-04-05T21:28:15.969Z,12.00
2019-04-05T21:31:14.717Z,11.90
2019-04-05T21:34:10.520Z,11.90
2019-04-05T21:37:06.575Z,11.90
2019-04-05T21:40:02.555Z,11.90
2019-04-05T21:42:59.728Z,11.80
2019-04-05T21:45:56.075Z,11.80
2019-04-05T21:48:53.009Z,11.70
2019-04-05T21:51:49.700Z,11.70
2019-04-05T21:54:47.845Z,11.70
2019-04-05T21:57:43.507Z,11.70
2019-04-05T22:00:44.304Z,11.70
2019-04-05T22:03:41.855Z,11.60
2019-04-05T22:06:38.804Z,11.50
2019-04-05T22:09:34.719Z,11.50
2019-04-05T22:12:31.151Z,11.40
2019-04-05T22:15:27.902Z,11.40
2019-04-05T22:18:24.595Z,11.30
2019-04-05T22:21:20.778Z,11.20
2019-04-05T22:24:17.561Z,11.20
2019-04-05T22:27:13.485Z,11.20
2019-04-05T22:30:10.482Z,11.00
2019-04-05T22:33:07.038Z,10.90
2019-04-05T22:36:02.844Z,10.90
2019-04-05T22:38:59.708Z,10.90
2019-04-05T22:41:56.593Z,10.90
2019-04-05T22:44:53.699Z,10.90
2019-04-05T22:47:51.155Z,10.80
2019-04-05T22:50:48.102Z,10.70
2019-04-05T22:53:44.872Z,10.60
2019-04-05T22:56:41.796Z,10.70
2019-04-05T22:59:38.417Z,10.60
2019-04-05T23:02:34.666Z,10.70
2019-04-05T23:05:32.385Z,10.60
2019-04-05T23:08:28.451Z,10.60
2019-04-05T23:11:25.349Z,10.60
2019-04-05T23:14:22.212Z,10.50
2019-04-05T23:17:18.121Z,10.50
2019-04-05T23:20:14.340Z,10.50
2019-04-05T23:23:10.095Z,10.50
2019-04-05T23:26:05.808Z,10.40
2019-04-05T23:29:02.151Z,10.30
2019-04-05T23:31:58.740Z,10.20
2019-04-05T23:34:54.375Z,10.10
2019-04-05T23:37:50.199Z,10.20
2019-04-05T23:40:46.954Z,10.20
2019-04-05T23:43:43.133Z,10.10
2019-04-05T23:46:38.975Z,10.10
2019-04-05T23:49:35.275Z,10.10
2019-04-05T23:52:32.018Z,10.10
2019-04-05T23:55:33.476Z,10.20
2019-04-05T23:58:26.712Z,10.20
